createdAt,value
2022-12-04T00:01:22.681Z,25.03
2022-12-04T00:03:52.973Z,26.00
2022-12-04T00:06:20.679Z,24.17
2022-12-04T00:08:48.239Z,25.23
2022-12-04T00:11:18.419Z,25.20
2022-12-04T00:13:45.659Z,24.40
2022-12-04T00:16:15.729Z,24.97
2022-12-04T00:18:42.554Z,24.17
2022-12-04T00:21:11.634Z,24.97
2022-12-04T00:23:39.381Z,26.53
2022-12-04T00:26:09.793Z,25.83
2022-12-04T00:28:37.245Z,25.97
2022-12-04T00:31:30.642Z,25.80
2022-12-04T00:33:57.739Z,26.30
2022-12-04T00:36:27.612Z,26.37
2022-12-04T00:38:55.187Z,24.33
2022-12-04T00:41:26.983Z,25.83
2022-12-04T00:43:54.119Z,22.57
2022-12-04T00:46:21.740Z,25.90
2022-12-04T00:48:48.753Z,26.03
2022-12-04T00:51:19.517Z,24.58
2022-12-04T00:53:46.626Z,23.73
2022-12-04T00:56:20.332Z,23.50
2022-12-04T00:58:47.695Z,24.60
2022-12-04T01:01:18.139Z,23.80
2022-12-04T01:03:45.272Z,23.47
2022-12-04T01:06:24.291Z,23.57
2022-12-04T01:08:52.650Z,24.33
2022-12-04T01:11:20.657Z,23.70
2022-12-04T01:13:47.262Z,24.17
2022-12-04T01:16:35.621Z,22.57
2022-12-04T01:19:03.034Z,22.83
2022-12-04T01:21:29.674Z,24.40
2022-12-04T01:23:57.157Z,21.70
2022-12-04T01:26:24.035Z,24.17
2022-12-04T01:28:50.909Z,23.10
2022-12-04T01:31:19.913Z,24.00
2022-12-04T01:33:47.815Z,22.23
2022-12-04T01:36:17.617Z,23.83
2022-12-04T01:38:45.124Z,22.87
2022-12-04T01:41:13.123Z,23.13
2022-12-04T01:43:40.933Z,22.27
2022-12-04T01:46:08.836Z,23.13
2022-12-04T01:48:44.004Z,22.20
2022-12-04T01:51:34.467Z,22.60
2022-12-04T01:54:05.688Z,21.17
2022-12-04T01:56:41.019Z,23.07
2022-12-04T01:59:09.188Z,24.07
2022-12-04T02:01:42.634Z,22.70
2022-12-04T02:04:09.370Z,23.50
2022-12-04T02:06:36.028Z,23.67
2022-12-04T02:09:02.899Z,22.07
2022-12-04T02:11:41.980Z,20.63
2022-12-04T02:14:42.278Z,20.83
2022-12-04T02:17:14.790Z,20.90
2022-12-04T02:20:10.219Z,23.67
2022-12-04T02:22:54.844Z,21.67
2022-12-04T02:25:44.018Z,20.23
2022-12-04T02:28:24.060Z,23.17
2022-12-04T02:30:56.285Z,22.07
2022-12-04T02:33:35.678Z,22.63
2022-12-04T02:36:11.464Z,21.40
2022-12-04T02:39:07.343Z,21.83
2022-12-04T02:41:43.631Z,21.70
2022-12-04T02:44:44.957Z,20.67
2022-12-04T02:47:14.125Z,21.30
2022-12-04T02:49:45.921Z,21.33
2022-12-04T02:52:17.081Z,20.73
2022-12-04T02:54:49.488Z,21.53
2022-12-04T02:57:23.140Z,20.67
2022-12-04T02:59:51.934Z,21.87
2022-12-04T03:02:25.192Z,21.33
2022-12-04T03:04:55.112Z,19.37
2022-12-04T03:07:34.236Z,20.50
2022-12-04T03:10:08.514Z,20.57
2022-12-04T03:13:04.959Z,20.03
2022-12-04T03:15:39.987Z,19.67
2022-12-04T03:18:16.545Z,19.30
2022-12-04T03:20:46.935Z,19.00
2022-12-04T03:23:19.205Z,18.73
2022-12-04T03:26:05.260Z,19.17
2022-12-04T03:28:42.628Z,19.10
2022-12-04T03:31:10.878Z,17.60
2022-12-04T03:33:47.404Z,18.80
2022-12-04T03:36:18.434Z,19.73
2022-12-04T03:39:01.405Z,18.10
2022-12-04T03:42:04.692Z,19.90
2022-12-04T03:44:41.313Z,18.27
2022-12-04T03:47:18.846Z,19.53
2022-12-04T03:50:23.019Z,18.97
2022-12-04T03:53:06.928Z,18.40
2022-12-04T03:55:43.874Z,18.13
2022-12-04T03:58:16.252Z,18.23
2022-12-04T04:00:44.400Z,18.87
2022-12-04T04:03:24.016Z,18.23
2022-12-04T04:05:54.812Z,19.97
2022-12-04T04:08:26.612Z,18.97
2022-12-04T04:11:02.619Z,18.10
2022-12-04T04:13:58.224Z,18.13
2022-12-04T04:16:46.643Z,18.60
2022-12-04T04:19:34.730Z,17.80
2022-12-04T04:22:24.037Z,18.87
2022-12-04T04:24:54.903Z,18.77
2022-12-04T04:27:21.552Z,18.77
2022-12-04T04:29:52.569Z,19.13
2022-12-04T04:32:37.938Z,19.70
2022-12-04T04:35:19.401Z,18.77
2022-12-04T04:38:11.179Z,20.33
2022-12-04T04:40:44.784Z,19.43
2022-12-04T04:43:16.930Z,19.67
2022-12-04T04:46:07.825Z,18.23
2022-12-04T04:48:57.418Z,18.30
2022-12-04T04:51:24.481Z,18.67
2022-12-04T04:53:55.031Z,18.57
2022-12-04T04:56:22.469Z,17.80
2022-12-04T04:58:49.448Z,18.35
2022-12-04T05:01:22.888Z,18.90
2022-12-04T05:03:49.608Z,18.70
2022-12-04T05:06:16.291Z,18.87
2022-12-04T05:08:44.045Z,17.70
2022-12-04T05:11:15.447Z,18.63
2022-12-04T05:13:42.529Z,17.03
2022-12-04T05:16:13.289Z,18.23
2022-12-04T05:18:40.056Z,19.00
2022-12-04T05:21:17.623Z,18.00
2022-12-04T05:23:44.505Z,17.30
2022-12-04T05:26:11.495Z,17.13
2022-12-04T05:28:39.460Z,17.20
2022-12-04T05:31:06.428Z,16.00
2022-12-04T05:33:33.100Z,17.43
2022-12-04T05:36:01.587Z,17.43
2022-12-04T05:38:28.773Z,18.20
2022-12-04T05:40:58.352Z,16.00
2022-12-04T05:43:25.086Z,16.90
2022-12-04T05:45:51.761Z,15.90
2022-12-04T05:48:18.389Z,15.50
2022-12-04T05:50:45.031Z,15.77
2022-12-04T05:53:11.964Z,15.13
2022-12-04T05:55:38.594Z,15.07
2022-12-04T05:58:05.281Z,14.50
2022-12-04T06:00:32.213Z,15.07
2022-12-04T06:05:39.661Z,13.87
2022-12-04T06:08:06.362Z,13.80
2022-12-04T06:10:33.032Z,15.97
2022-12-04T06:12:59.677Z,14.13
2022-12-04T06:15:26.331Z,14.77
2022-12-04T06:17:52.957Z,13.43
2022-12-04T06:20:19.668Z,14.23
2022-12-04T06:22:46.418Z,13.50
2022-12-04T06:25:13.046Z,14.07
2022-12-04T06:27:39.696Z,14.07
2022-12-04T06:30:07.012Z,15.00
2022-12-04T06:32:33.696Z,14.30
2022-12-04T06:35:00.288Z,14.63
2022-12-04T06:37:27.113Z,14.70
2022-12-04T06:39:54.086Z,13.83
2022-12-04T06:42:20.837Z,12.80
2022-12-04T06:44:47.484Z,12.37
2022-12-04T06:47:14.071Z,13.73
2022-12-04T06:49:40.734Z,13.60
2022-12-04T06:52:07.387Z,13.07
2022-12-04T06:54:34.011Z,13.57
2022-12-04T06:57:00.607Z,12.90
2022-12-04T06:59:27.874Z,13.73
2022-12-04T07:01:54.606Z,13.07
2022-12-04T07:04:21.370Z,13.13
2022-12-04T07:06:47.972Z,12.47
2022-12-04T07:09:16.920Z,12.47
2022-12-04T07:11:44.778Z,12.97
2022-12-04T07:14:12.928Z,11.87
2022-12-04T07:16:41.995Z,12.73
2022-12-04T07:19:11.621Z,12.13
2022-12-04T07:21:38.341Z,11.47
2022-12-04T07:24:05.219Z,12.00
2022-12-04T07:26:32.102Z,11.70
2022-12-04T07:28:59.563Z,11.80
2022-12-04T07:31:29.007Z,12.13
2022-12-04T07:33:56.479Z,11.87
2022-12-04T07:36:24.596Z,11.47
2022-12-04T07:38:51.885Z,10.97
2022-12-04T07:41:20.818Z,10.97
2022-12-04T07:43:47.422Z,11.07
2022-12-04T07:46:16.725Z,11.00
2022-12-04T07:48:43.671Z,10.43
2022-12-04T07:51:21.659Z,11.17
2022-12-04T07:53:49.752Z,10.73
2022-12-04T07:56:17.925Z,11.70
2022-12-04T07:58:45.045Z,11.48
2022-12-04T08:01:16.636Z,11.40
2022-12-04T08:03:48.164Z,12.17
2022-12-04T08:06:17.044Z,10.45
2022-12-04T08:08:43.749Z,11.70
2022-12-04T08:11:13.346Z,11.73
2022-12-04T08:13:40.226Z,11.33
2022-12-04T08:16:08.682Z,10.50
2022-12-04T08:18:35.418Z,12.13
2022-12-04T08:21:07.158Z,11.43
2022-12-04T08:23:34.628Z,11.53
2022-12-04T08:26:02.104Z,10.80
2022-12-04T08:28:29.363Z,10.03
2022-12-04T08:31:01.566Z,10.63
2022-12-04T08:33:28.415Z,10.00
2022-12-04T08:35:54.982Z,10.43
2022-12-04T08:38:21.563Z,10.27
2022-12-04T08:40:48.148Z,9.90
2022-12-04T08:43:14.798Z,9.83
2022-12-04T08:45:41.455Z,10.87
2022-12-04T08:48:08.102Z,10.43
2022-12-04T08:50:34.791Z,11.00
2022-12-04T08:53:01.433Z,11.27
2022-12-04T08:55:28.032Z,10.83
2022-12-04T08:57:54.840Z,10.83
2022-12-04T09:00:21.671Z,10.47
2022-12-04T09:02:51.508Z,10.80
2022-12-04T09:05:18.186Z,10.57
2022-12-04T09:07:44.920Z,10.17
2022-12-04T09:10:12.461Z,9.60
2022-12-04T09:12:39.094Z,9.77
2022-12-04T09:15:06.943Z,9.97
2022-12-04T09:17:36.209Z,9.97
2022-12-04T09:20:05.217Z,11.13
2022-12-04T09:22:57.869Z,9.93
2022-12-04T09:25:21.190Z,9.93
2022-12-04T09:27:47.834Z,10.70
2022-12-04T09:30:14.524Z,10.07
2022-12-04T09:32:41.204Z,9.27
2022-12-04T09:35:09.752Z,10.07
2022-12-04T09:37:37.055Z,10.50
2022-12-04T09:40:05.290Z,10.30
2022-12-04T09:42:44.204Z,10.18
2022-12-04T09:45:15.655Z,9.40
2022-12-04T09:47:48.501Z,10.17
2022-12-04T09:50:42.714Z,9.27
2022-12-04T09:53:34.573Z,9.90
2022-12-04T09:56:06.020Z,9.60
2022-12-04T09:58:59.814Z,10.53
2022-12-04T10:01:32.006Z,10.57
2022-12-04T10:04:05.667Z,9.93
2022-12-04T10:06:46.195Z,10.90
2022-12-04T10:09:50.521Z,10.47
2022-12-04T10:12:31.227Z,9.80
2022-12-04T10:15:22.128Z,10.90
2022-12-04T10:18:13.289Z,10.03
2022-12-04T10:20:48.325Z,10.50
2022-12-04T10:23:54.705Z,11.67
2022-12-04T10:26:27.497Z,10.65
2022-12-04T10:29:03.349Z,10.47
2022-12-04T10:31:32.330Z,10.80
2022-12-04T10:34:05.395Z,11.43
2022-12-04T10:36:34.427Z,11.17
2022-12-04T10:39:25.742Z,10.80
2022-12-04T10:42:04.014Z,11.57
2022-12-04T10:44:30.750Z,11.40
2022-12-04T10:47:00.725Z,11.50
2022-12-04T10:49:30.141Z,11.70
2022-12-04T10:51:56.880Z,11.20
2022-12-04T10:54:48.283Z,11.53
2022-12-04T10:57:15.767Z,12.20
2022-12-04T10:59:55.107Z,12.33
2022-12-04T11:02:31.709Z,13.93
2022-12-04T11:05:22.047Z,12.80
2022-12-04T11:07:49.502Z,13.50
2022-12-04T11:10:34.145Z,14.10
2022-12-04T11:13:13.975Z,13.07
2022-12-04T11:15:50.310Z,12.47
2022-12-04T11:18:18.299Z,13.63
2022-12-04T11:20:52.629Z,13.43
2022-12-04T11:23:19.673Z,15.13
2022-12-04T11:26:03.835Z,14.70
2022-12-04T11:28:41.824Z,13.60
2022-12-04T11:31:15.417Z,14.50
2022-12-04T11:33:54.390Z,14.50
2022-12-04T11:36:22.866Z,15.33
2022-12-04T11:38:51.577Z,15.60
2022-12-04T11:41:28.125Z,15.50
2022-12-04T11:43:59.676Z,16.33
2022-12-04T11:46:30.835Z,15.60
2022-12-04T11:48:57.664Z,16.10
2022-12-04T11:51:36.285Z,15.57
2022-12-04T11:54:32.362Z,15.05
2022-12-04T11:57:20.260Z,15.57
2022-12-04T11:59:59.324Z,16.13
2022-12-04T12:02:49.004Z,14.90
2022-12-04T12:05:45.860Z,17.33
2022-12-04T12:08:41.472Z,17.63
2022-12-04T12:11:16.494Z,16.27
2022-12-04T12:14:14.423Z,16.30
2022-12-04T12:16:48.522Z,16.23
2022-12-04T12:19:33.585Z,15.23
2022-12-04T12:22:31.864Z,17.00
2022-12-04T12:25:36.247Z,15.23
2022-12-04T12:28:18.148Z,15.77
2022-12-04T12:31:18.925Z,16.73
2022-12-04T12:33:56.714Z,15.10
2022-12-04T12:36:26.937Z,16.67
2022-12-04T12:39:01.285Z,15.45
2022-12-04T12:42:02.041Z,17.50
2022-12-04T12:44:54.542Z,15.67
2022-12-04T12:47:27.016Z,15.20
2022-12-04T12:50:15.519Z,17.33
2022-12-04T12:52:47.911Z,18.58
2022-12-04T12:55:26.208Z,15.68
2022-12-04T12:58:15.268Z,15.88
2022-12-04T13:01:04.334Z,16.03
2022-12-04T13:03:53.920Z,15.82
2022-12-04T13:06:32.908Z,16.73
2022-12-04T13:09:32.654Z,17.13
2022-12-04T13:12:06.616Z,17.70
2022-12-04T13:14:33.279Z,16.70
2022-12-04T13:17:10.860Z,17.00
2022-12-04T13:19:53.813Z,17.05
2022-12-04T13:22:48.200Z,15.77
2022-12-04T13:25:34.084Z,15.27
2022-12-04T13:28:42.619Z,16.10
2022-12-04T13:31:21.823Z,15.73
2022-12-04T13:34:18.109Z,16.53
2022-12-04T13:37:27.035Z,16.30
2022-12-04T13:40:12.299Z,17.20
2022-12-04T13:42:39.152Z,16.03
2022-12-04T13:45:33.206Z,16.27
2022-12-04T13:48:02.513Z,16.50
2022-12-04T13:50:32.483Z,16.17
2022-12-04T13:53:00.718Z,16.57
2022-12-04T13:55:33.975Z,15.83
2022-12-04T13:58:11.201Z,15.97
2022-12-04T14:00:42.355Z,15.03
2022-12-04T14:03:29.668Z,15.00
2022-12-04T14:05:56.814Z,16.67
2022-12-04T14:08:26.348Z,15.07
2022-12-04T14:11:01.770Z,15.83
2022-12-04T14:13:36.788Z,16.65
2022-12-04T14:16:07.031Z,16.83
2022-12-04T14:18:33.897Z,16.50
2022-12-04T14:21:04.673Z,17.67
2022-12-04T14:23:37.661Z,16.63
2022-12-04T14:26:05.363Z,15.63
2022-12-04T14:28:33.991Z,16.20
2022-12-04T14:31:25.585Z,16.42
2022-12-04T14:34:17.874Z,15.57
2022-12-04T14:36:47.183Z,14.87
2022-12-04T14:39:34.213Z,16.27
2022-12-04T14:42:12.653Z,15.48
2022-12-04T14:44:40.139Z,16.37
2022-12-04T14:47:39.849Z,16.90
2022-12-04T14:50:16.405Z,16.67
2022-12-04T14:52:54.419Z,17.10
2022-12-04T14:56:07.246Z,18.45
2022-12-04T14:58:37.598Z,17.80
2022-12-04T15:01:38.280Z,18.10
2022-12-04T15:04:25.640Z,18.40
2022-12-04T15:06:58.476Z,18.13
2022-12-04T15:09:46.659Z,20.03
2022-12-04T15:12:33.572Z,18.65
2022-12-04T15:15:13.570Z,19.40
2022-12-04T15:17:40.647Z,20.13
2022-12-04T15:20:17.960Z,22.13
2022-12-04T15:22:45.812Z,21.87
2022-12-04T15:25:26.152Z,21.02
2022-12-04T15:27:57.620Z,20.80
2022-12-04T15:30:27.294Z,20.88
2022-12-04T15:32:54.186Z,22.87
2022-12-04T15:35:29.309Z,23.63
2022-12-04T15:37:56.366Z,23.13
2022-12-04T15:40:28.406Z,23.37
2022-12-04T15:43:05.809Z,24.33
2022-12-04T15:45:34.309Z,25.10
2022-12-04T15:48:01.422Z,24.40
2022-12-04T15:50:30.708Z,24.47
2022-12-04T15:53:04.994Z,26.23
2022-12-04T15:55:39.394Z,25.53
2022-12-04T15:58:17.754Z,26.00
2022-12-04T16:00:44.750Z,23.65
2022-12-04T16:03:31.335Z,23.80
2022-12-04T16:06:21.084Z,23.87
2022-12-04T16:08:55.702Z,23.67
2022-12-04T16:11:25.318Z,25.77
2022-12-04T16:14:09.035Z,25.90
2022-12-04T16:16:38.119Z,23.70
2022-12-04T16:19:09.506Z,24.47
2022-12-04T16:21:36.190Z,23.40
2022-12-04T16:24:04.737Z,24.20
2022-12-04T16:26:31.473Z,24.38
2022-12-04T16:28:59.166Z,23.37
2022-12-04T16:31:26.674Z,22.07
2022-12-04T16:33:53.419Z,21.87
2022-12-04T16:36:20.017Z,22.27
2022-12-04T16:38:46.628Z,22.53
2022-12-04T16:41:15.627Z,23.50
2022-12-04T16:43:42.291Z,25.97
2022-12-04T16:46:16.673Z,26.80
2022-12-04T16:48:43.587Z,28.33
2022-12-04T16:51:18.798Z,26.00
2022-12-04T16:53:45.522Z,25.57
2022-12-04T16:56:12.196Z,22.53
2022-12-04T16:58:38.856Z,24.83
2022-12-04T17:01:12.987Z,23.20
2022-12-04T17:03:39.787Z,22.42
2022-12-04T17:06:06.575Z,22.17
2022-12-04T17:08:33.201Z,20.93
2022-12-04T17:10:59.869Z,20.73
2022-12-04T17:13:26.703Z,22.35
2022-12-04T17:15:53.425Z,21.52
2022-12-04T17:18:21.555Z,22.10
2022-12-04T17:20:48.471Z,20.53
2022-12-04T17:23:15.158Z,20.48
2022-12-04T17:25:41.962Z,19.95
2022-12-04T17:28:08.904Z,21.13
2022-12-04T17:30:36.381Z,21.97
2022-12-04T17:33:04.414Z,22.15
2022-12-04T17:35:31.335Z,19.40
2022-12-04T17:38:03.800Z,18.40
2022-12-04T17:40:32.602Z,18.90
2022-12-04T17:42:59.564Z,18.93
2022-12-04T17:45:26.417Z,18.50
2022-12-04T17:47:53.045Z,18.93
2022-12-04T17:50:19.706Z,17.80
2022-12-04T17:52:46.453Z,19.35
2022-12-04T17:55:13.088Z,17.93
2022-12-04T17:57:39.699Z,17.77
2022-12-04T18:00:08.597Z,18.30
2022-12-04T18:02:41.326Z,18.92
2022-12-04T18:05:09.062Z,18.25
2022-12-04T18:07:35.747Z,17.33
2022-12-04T18:10:02.452Z,18.37
2022-12-04T18:12:29.030Z,17.87
2022-12-04T18:14:55.745Z,17.97
2022-12-04T18:17:22.412Z,17.45
2022-12-04T18:19:49.103Z,17.80
2022-12-04T18:22:15.765Z,18.52
2022-12-04T18:24:42.382Z,19.20
2022-12-04T18:27:09.390Z,18.65
2022-12-04T18:29:36.003Z,17.67
2022-12-04T18:32:02.672Z,17.75
2022-12-04T18:34:29.362Z,17.47
2022-12-04T18:36:56.083Z,19.50
2022-12-04T18:39:24.268Z,20.23
2022-12-04T18:41:51.328Z,19.90
2022-12-04T18:44:18.423Z,20.47
2022-12-04T18:46:45.073Z,19.30
2022-12-04T18:49:12.032Z,18.47
2022-12-04T18:51:41.329Z,18.97
2022-12-04T18:54:12.621Z,17.33
2022-12-04T18:56:39.668Z,17.27
2022-12-04T18:59:18.857Z,17.90
2022-12-04T19:01:49.688Z,18.03
2022-12-04T19:04:18.292Z,18.50
2022-12-04T19:06:47.537Z,17.25
2022-12-04T19:09:17.424Z,19.10
2022-12-04T19:11:45.243Z,18.70
2022-12-04T19:14:22.477Z,17.37
2022-12-04T19:16:50.449Z,17.25
2022-12-04T19:19:17.706Z,16.27
2022-12-04T19:21:44.447Z,16.93
2022-12-04T19:24:11.557Z,17.30
2022-12-04T19:26:38.719Z,16.87
2022-12-04T19:29:06.926Z,17.17
2022-12-04T19:31:36.501Z,17.17
2022-12-04T19:34:03.936Z,15.67
2022-12-04T19:36:32.141Z,16.83
2022-12-04T19:39:00.313Z,17.35
2022-12-04T19:41:34.184Z,15.93
2022-12-04T19:44:01.201Z,15.13
2022-12-04T19:46:30.682Z,17.03
2022-12-04T19:49:01.502Z,16.03
2022-12-04T19:51:31.905Z,16.83
2022-12-04T19:53:58.935Z,15.05
2022-12-04T19:56:27.002Z,15.47
2022-12-04T19:58:56.521Z,14.23
2022-12-04T20:01:25.344Z,16.77
2022-12-04T20:03:52.660Z,14.97
2022-12-04T20:06:21.243Z,15.25
2022-12-04T20:08:53.091Z,15.93
2022-12-04T20:11:19.891Z,16.77
2022-12-04T20:13:48.943Z,16.73
2022-12-04T20:16:19.281Z,16.30
2022-12-04T20:18:46.424Z,14.93
2022-12-04T20:21:13.893Z,15.97
2022-12-04T20:23:42.892Z,17.55
2022-12-04T20:26:11.786Z,16.30
2022-12-04T20:28:39.323Z,14.47
2022-12-04T20:31:27.002Z,16.00
2022-12-04T20:33:55.027Z,16.47
2022-12-04T20:36:23.485Z,15.83
2022-12-04T20:38:52.183Z,17.30
2022-12-04T20:41:20.157Z,15.45
2022-12-04T20:43:47.543Z,15.98
2022-12-04T20:46:26.533Z,16.30
2022-12-04T20:48:53.893Z,16.95
2022-12-04T20:51:23.619Z,17.43
2022-12-04T20:53:51.531Z,17.42
2022-12-04T20:56:20.301Z,16.02
2022-12-04T20:58:47.098Z,16.45
2022-12-04T21:01:16.360Z,17.13
2022-12-04T21:03:44.043Z,17.40
2022-12-04T21:06:19.680Z,17.80
2022-12-04T21:08:53.278Z,16.47
2022-12-04T21:11:21.297Z,16.45
2022-12-04T21:14:06.742Z,17.23
2022-12-04T21:16:33.847Z,15.63
2022-12-04T21:19:01.460Z,16.60
2022-12-04T21:21:28.298Z,19.20
2022-12-04T21:23:54.980Z,16.70
2022-12-04T21:26:22.153Z,17.23
2022-12-04T21:28:48.760Z,18.67
2022-12-04T21:31:15.505Z,18.52
2022-12-04T21:33:42.256Z,19.08
2022-12-04T21:36:09.512Z,17.38
2022-12-04T21:38:37.488Z,15.93
2022-12-04T21:41:06.228Z,17.65
2022-12-04T21:43:33.336Z,17.58
2022-12-04T21:46:09.410Z,19.90
2022-12-04T21:48:36.902Z,18.33
2022-12-04T21:51:16.901Z,17.70
2022-12-04T21:53:48.104Z,17.08
2022-12-04T21:56:14.782Z,18.37
2022-12-04T21:58:41.452Z,19.50
2022-12-04T22:01:12.595Z,17.63
2022-12-04T22:03:39.293Z,17.57
2022-12-04T22:06:06.360Z,18.47
2022-12-04T22:08:36.387Z,18.45
2022-12-04T22:11:06.406Z,17.33
2022-12-04T22:13:33.711Z,17.95
2022-12-04T22:16:06.012Z,19.02
2022-12-04T22:18:33.750Z,18.85
2022-12-04T22:21:04.372Z,18.48
2022-12-04T22:23:31.020Z,19.60
2022-12-04T22:26:04.761Z,19.83
2022-12-04T22:28:31.363Z,20.17
2022-12-04T22:31:09.598Z,19.60
2022-12-04T22:33:37.560Z,21.30
2022-12-04T22:36:10.103Z,19.42
2022-12-04T22:38:52.615Z,22.23
2022-12-04T22:41:25.441Z,20.10
2022-12-04T22:43:52.273Z,20.00
2022-12-04T22:46:19.080Z,21.70
2022-12-04T22:48:45.806Z,20.07
2022-12-04T22:51:15.570Z,20.73
2022-12-04T22:53:43.449Z,20.77
2022-12-04T22:56:16.260Z,20.65
2022-12-04T22:58:44.144Z,20.05
2022-12-04T23:01:25.325Z,20.40
2022-12-04T23:03:53.643Z,18.57
2022-12-04T23:06:22.826Z,17.77
2022-12-04T23:08:53.520Z,19.53
2022-12-04T23:11:21.465Z,18.92
2022-12-04T23:14:02.627Z,18.38
2022-12-04T23:16:31.328Z,18.93
2022-12-04T23:18:58.494Z,18.90
2022-12-04T23:21:25.876Z,18.50
2022-12-04T23:23:54.202Z,18.87
2022-12-04T23:26:23.887Z,16.75
2022-12-04T23:28:50.601Z,16.00
2022-12-04T23:31:17.859Z,16.58
2022-12-04T23:33:45.017Z,17.63
2022-12-04T23:36:12.673Z,18.83
2022-12-04T23:38:40.872Z,17.00
2022-12-04T23:41:12.304Z,18.45
2022-12-04T23:43:39.987Z,17.13
2022-12-04T23:46:15.390Z,18.92
2022-12-04T23:48:43.839Z,20.10
2022-12-04T23:51:11.873Z,21.97
2022-12-04T23:53:38.961Z,18.40
2022-12-04T23:56:10.340Z,17.30
2022-12-04T23:58:37.848Z,18.00
